Gulbeniz A — TCZK8 — position and weather

sailwx.info

Track history (hours):
 
Tides and Currents Weather Stations Pressure Air Temp Water Temp Dewpoint Dewpoint Depression Visibility Wind Speed Wind Dir Waves Ship Positions

Gulbeniz A

Last reported at 2017-Jun-28 07:57 UTC. Time now 2017-Jun-29 16:06 UTC.
Position N 41°15' E 002°10'.

Length 210 m; draft 10.2 m.

Type: Ship (hazmat cat A). MMSI: 271042493.

Date/timePositionNaut miles runAvg speedWind from/ knotsBaromVisibWave heightAir tempDewpointWater temp
2017-Jun-28 07:57N 41°15' E 002°10'812.3
2017-Jun-28 07:19N 41°09' E 002°03'412.1
2017-Jun-28 07:00N 41°06' E 002°01'612.0
2017-Jun-28 06:30N 41°02' E 001°56'611.8
2017-Jun-28 05:59N 40°57' E 001°51'611.8
2017-Jun-28 05:30N 40°52' E 001°46'611.7
2017-Jun-28 05:00N 40°48' E 001°41'611.4
2017-Jun-28 04:30N 40°43' E 001°37'511.1
2017-Jun-28 04:00N 40°39' E 001°33'611.2
2017-Jun-28 03:30N 40°35' E 001°26'611.8
2017-Jun-28 03:00N 40°32' E 001°20'611.7
2017-Jun-28 02:30N 40°29' E 001°14'611.4
2017-Jun-28 02:00N 40°26' E 001°07'611.3
2017-Jun-28 01:30N 40°23' E 001°01'611.7
2017-Jun-28 01:00N 40°19' E 000°55'612.1
2017-Jun-28 00:30N 40°16' E 000°48'612.0
2017-Jun-28 00:00N 40°12' E 000°42'612.0
2017-Jun-27 23:30N 40°09' E 000°35'611.9
2017-Jun-27 23:00N 40°06' E 000°29'611.9
2017-Jun-27 22:30N 40°03' E 000°22'611.7
2017-Jun-27 22:00N 39°60' E 000°16'11 5.6
2017-Jun-27 20:05N 39°58' E 000°02'0 0.0
2017-Jun-27 10:58N 39°58' E 000°02'0 0.0
2017-Jun-27 10:22N 39°58' E 000°02'0 0.0
2017-Jun-27 09:58N 39°58' E 000°02'0 0.0
2017-Jun-27 02:10N 39°58' E 000°02'0 0.0
2017-Jun-27 01:46N 39°58' E 000°02'  
2017-Jun-21 11:18N 39°18' E 000°44'1012.3
2017-Jun-21 10:31N 39°16' E 000°56'011.6
2017-Jun-21 10:29N 39°16' E 000°57'611.7
2017-Jun-21 10:00N 39°16' E 001°04'611.6
2017-Jun-21 09:30N 39°15' E 001°11'611.3
2017-Jun-21 09:00N 39°14' E 001°18'611.2
2017-Jun-21 08:30N 39°13' E 001°25'511.0
2017-Jun-21 08:00N 39°12' E 001°32'610.9
2017-Jun-21 07:30N 39°11' E 001°39'511.0
2017-Jun-21 07:00N 39°10' E 001°46'611.1
2017-Jun-21 06:30N 39°10' E 001°53'611.3
2017-Jun-21 06:00N 39°09' E 002°01'611.3
2017-Jun-21 05:30N 39°08' E 002°08'611.5
2017-Jun-21 05:00N 39°08' E 002°15'612.0
2017-Jun-21 04:30N 39°07' E 002°23'612.1
2017-Jun-21 04:00N 39°06' E 002°30'611.9
2017-Jun-21 03:30N 39°05' E 002°38'611.8
2017-Jun-21 03:00N 39°04' E 002°46'611.9
2017-Jun-21 02:30N 39°03' E 002°53'611.7
2017-Jun-21 02:00N 39°02' E 003°01'611.6
2017-Jun-21 01:30N 39°02' E 003°08'611.7
2017-Jun-21 01:00N 39°01' E 003°15'611.8
2017-Jun-21 00:30N 39°01' E 003°23'611.6
2017-Jun-21 00:00N 39°01' E 003°31'611.7
2017-Jun-20 23:30N 39°01' E 003°38'611.6
2017-Jun-20 23:00N 39°00' E 003°46'611.5
2017-Jun-20 22:30N 38°60' E 003°53'611.4
2017-Jun-20 22:00N 38°60' E 004°00'611.3
2017-Jun-20 21:30N 38°59' E 004°07'611.3
2017-Jun-20 21:00N 38°59' E 004°15'611.3
2017-Jun-20 20:30N 38°59' E 004°22'911.5
2017-Jun-20 19:41N 38°58' E 004°34'211.6
2017-Jun-20 19:30N 38°58' E 004°37'611.6
2017-Jun-20 18:59N 38°58' E 004°44'611.6
2017-Jun-20 18:30N 38°57' E 004°52'611.7
2017-Jun-20 18:00N 38°57' E 004°59'611.8
2017-Jun-20 17:30N 38°57' E 005°07'811.8
2017-Jun-20 16:52N 38°56' E 005°16'611.8
2017-Jun-20 16:22N 38°56' E 005°24'511.8
2017-Jun-20 15:59N 38°56' E 005°30'612.1
2017-Jun-20 15:29N 38°55' E 005°38'712.2
2017-Jun-20 14:53N 38°55' E 005°47'612.3
2017-Jun-20 14:26N 38°55' E 005°54'2312.3
2017-Jun-20 12:35N 38°53' E 006°23'212.3
2017-Jun-20 12:26N 38°53' E 006°26'10712.1
2017-Jun-20 03:33N 38°48' E 008°43'111.9
2017-Jun-20 03:30N 38°48' E 008°44'612.1
2017-Jun-20 03:00N 38°48' E 008°52'611.5
2017-Jun-20 02:29N 38°51' E 008°58'611.9
2017-Jun-20 02:00N 38°55' E 009°04'611.4
2017-Jun-20 01:30N 39°00' E 009°07'611.4
2017-Jun-20 00:59N 39°06' E 009°07'5 9.4
2017-Jun-20 00:30N 39°11' E 009°06'3 5.5
2017-Jun-20 00:00N 39°13' E 009°04'0 0.0
2017-Jun-19 23:30N 39°13' E 009°04'0 0.0
2017-Jun-19 23:00N 39°13' E 009°04'0 0.0
2017-Jun-19 22:30N 39°13' E 009°04'0 0.0
2017-Jun-19 22:00N 39°13' E 009°04'0 0.0
2017-Jun-19 21:30N 39°13' E 009°04'0 0.0
2017-Jun-19 21:00N 39°13' E 009°04'0 0.0
2017-Jun-19 20:30N 39°13' E 009°04'0 0.0
2017-Jun-19 20:00N 39°13' E 009°04'0 0.0
2017-Jun-19 19:30N 39°13' E 009°04'0 0.0
2017-Jun-19 19:00N 39°13' E 009°04'0 0.0
2017-Jun-19 18:30N 39°13' E 009°04'0 0.0
2017-Jun-19 18:00N 39°13' E 009°04'0 0.0
2017-Jun-19 17:30N 39°13' E 009°04'0 0.0
2017-Jun-19 17:00N 39°13' E 009°04'0 0.0
2017-Jun-19 16:30N 39°13' E 009°04'0 0.0
2017-Jun-19 16:00N 39°13' E 009°04'0 0.0
2017-Jun-19 15:30N 39°13' E 009°04'0 0.0
2017-Jun-19 15:00N 39°13' E 009°04'0 0.3
2017-Jun-19 14:00N 39°13' E 009°04'3 5.8
2017-Jun-19 13:30N 39°11' E 009°06'3 6.6
2017-Jun-19 13:00N 39°08' E 009°06'611.0
2017-Jun-19 12:30N 39°04' E 009°11'611.9
2017-Jun-19 11:59N 39°00' E 009°17'612.0
2017-Jun-19 11:30N 38°57' E 009°23'712.3
2017-Jun-19 10:55N 38°53' E 009°31'21211.6
2017-Jun-18 16:39N 37°03' E 013°21'311.2
2017-Jun-18 16:26N 37°02' E 013°24'511.1
2017-Jun-18 16:00N 37°01' E 013°29'611.1
2017-Jun-18 15:30N 36°58' E 013°36'611.2
2017-Jun-18 15:00N 36°56' E 013°42'1111.4
2017-Jun-18 14:00N 36°52' E 013°55'611.4
2017-Jun-18 13:30N 36°49' E 014°02'611.4
2017-Jun-18 13:00N 36°47' E 014°08'611.4
2017-Jun-18 12:30N 36°44' E 014°15'611.4
2017-Jun-18 12:00N 36°42' E 014°21'611.5
2017-Jun-18 11:30N 36°40' E 014°28'611.4
2017-Jun-18 11:00N 36°39' E 014°35'611.2
2017-Jun-18 10:30N 36°37' E 014°42'611.6
2017-Jun-18 10:00N 36°36' E 014°49'712.0
2017-Jun-18 09:25N 36°35' E 014°57'512.2
2017-Jun-18 08:58N 36°35' E 015°04'  
Track history (hours):
 
Tides and Currents Weather Stations Pressure Air Temp Water Temp Dewpoint Dewpoint Depression Visibility Wind Speed Wind Dir Waves Ship Positions

Gulbeniz A

Last reported at 2017-Jun-28 07:57 UTC. Time now 2017-Jun-29 16:06 UTC.
Position N 41°15' E 002°10'.

Length 210 m; draft 10.2 m.

Type: Ship (hazmat cat A). MMSI: 271042493.

Date/timePositionNaut miles runAvg speedWind from/ knotsBaromVisibWave heightAir tempDewpointWater temp
2017-Jun-28 07:57N 41°15' E 002°10'812.3
2017-Jun-28 07:19N 41°09' E 002°03'412.1
2017-Jun-28 07:00N 41°06' E 002°01'612.0
2017-Jun-28 06:30N 41°02' E 001°56'611.8
2017-Jun-28 05:59N 40°57' E 001°51'611.8
2017-Jun-28 05:30N 40°52' E 001°46'611.7
2017-Jun-28 05:00N 40°48' E 001°41'611.4
2017-Jun-28 04:30N 40°43' E 001°37'511.1
2017-Jun-28 04:00N 40°39' E 001°33'611.2
2017-Jun-28 03:30N 40°35' E 001°26'611.8
2017-Jun-28 03:00N 40°32' E 001°20'611.7
2017-Jun-28 02:30N 40°29' E 001°14'611.4
2017-Jun-28 02:00N 40°26' E 001°07'611.3
2017-Jun-28 01:30N 40°23' E 001°01'611.7
2017-Jun-28 01:00N 40°19' E 000°55'612.1
2017-Jun-28 00:30N 40°16' E 000°48'612.0
2017-Jun-28 00:00N 40°12' E 000°42'612.0
2017-Jun-27 23:30N 40°09' E 000°35'611.9
2017-Jun-27 23:00N 40°06' E 000°29'611.9
2017-Jun-27 22:30N 40°03' E 000°22'611.7
2017-Jun-27 22:00N 39°60' E 000°16'11 5.6
2017-Jun-27 20:05N 39°58' E 000°02'0 0.0
2017-Jun-27 10:58N 39°58' E 000°02'0 0.0
2017-Jun-27 10:22N 39°58' E 000°02'0 0.0
2017-Jun-27 09:58N 39°58' E 000°02'0 0.0
2017-Jun-27 02:10N 39°58' E 000°02'0 0.0
2017-Jun-27 01:46N 39°58' E 000°02'  
2017-Jun-21 11:18N 39°18' E 000°44'1012.3
2017-Jun-21 10:31N 39°16' E 000°56'011.6
2017-Jun-21 10:29N 39°16' E 000°57'611.7
2017-Jun-21 10:00N 39°16' E 001°04'611.6
2017-Jun-21 09:30N 39°15' E 001°11'611.3
2017-Jun-21 09:00N 39°14' E 001°18'611.2
2017-Jun-21 08:30N 39°13' E 001°25'511.0
2017-Jun-21 08:00N 39°12' E 001°32'610.9
2017-Jun-21 07:30N 39°11' E 001°39'511.0
2017-Jun-21 07:00N 39°10' E 001°46'611.1
2017-Jun-21 06:30N 39°10' E 001°53'611.3
2017-Jun-21 06:00N 39°09' E 002°01'611.3
2017-Jun-21 05:30N 39°08' E 002°08'611.5
2017-Jun-21 05:00N 39°08' E 002°15'612.0
2017-Jun-21 04:30N 39°07' E 002°23'612.1
2017-Jun-21 04:00N 39°06' E 002°30'611.9
2017-Jun-21 03:30N 39°05' E 002°38'611.8
2017-Jun-21 03:00N 39°04' E 002°46'611.9
2017-Jun-21 02:30N 39°03' E 002°53'611.7
2017-Jun-21 02:00N 39°02' E 003°01'611.6
2017-Jun-21 01:30N 39°02' E 003°08'611.7
2017-Jun-21 01:00N 39°01' E 003°15'611.8
2017-Jun-21 00:30N 39°01' E 003°23'611.6
2017-Jun-21 00:00N 39°01' E 003°31'611.7
2017-Jun-20 23:30N 39°01' E 003°38'611.6
2017-Jun-20 23:00N 39°00' E 003°46'611.5
2017-Jun-20 22:30N 38°60' E 003°53'611.4
2017-Jun-20 22:00N 38°60' E 004°00'611.3
2017-Jun-20 21:30N 38°59' E 004°07'611.3
2017-Jun-20 21:00N 38°59' E 004°15'611.3
2017-Jun-20 20:30N 38°59' E 004°22'911.5
2017-Jun-20 19:41N 38°58' E 004°34'211.6
2017-Jun-20 19:30N 38°58' E 004°37'611.6
2017-Jun-20 18:59N 38°58' E 004°44'611.6
2017-Jun-20 18:30N 38°57' E 004°52'611.7
2017-Jun-20 18:00N 38°57' E 004°59'611.8
2017-Jun-20 17:30N 38°57' E 005°07'811.8
2017-Jun-20 16:52N 38°56' E 005°16'611.8
2017-Jun-20 16:22N 38°56' E 005°24'511.8
2017-Jun-20 15:59N 38°56' E 005°30'612.1
2017-Jun-20 15:29N 38°55' E 005°38'712.2
2017-Jun-20 14:53N 38°55' E 005°47'612.3
2017-Jun-20 14:26N 38°55' E 005°54'2312.3
2017-Jun-20 12:35N 38°53' E 006°23'212.3
2017-Jun-20 12:26N 38°53' E 006°26'10712.1
2017-Jun-20 03:33N 38°48' E 008°43'111.9
2017-Jun-20 03:30N 38°48' E 008°44'612.1
2017-Jun-20 03:00N 38°48' E 008°52'611.5
2017-Jun-20 02:29N 38°51' E 008°58'611.9
2017-Jun-20 02:00N 38°55' E 009°04'611.4
2017-Jun-20 01:30N 39°00' E 009°07'611.4
2017-Jun-20 00:59N 39°06' E 009°07'5 9.4
2017-Jun-20 00:30N 39°11' E 009°06'3 5.5
2017-Jun-20 00:00N 39°13' E 009°04'0 0.0
2017-Jun-19 23:30N 39°13' E 009°04'0 0.0
2017-Jun-19 23:00N 39°13' E 009°04'0 0.0
2017-Jun-19 22:30N 39°13' E 009°04'0 0.0
2017-Jun-19 22:00N 39°13' E 009°04'0 0.0
2017-Jun-19 21:30N 39°13' E 009°04'0 0.0
2017-Jun-19 21:00N 39°13' E 009°04'0 0.0
2017-Jun-19 20:30N 39°13' E 009°04'0 0.0
2017-Jun-19 20:00N 39°13' E 009°04'0 0.0
2017-Jun-19 19:30N 39°13' E 009°04'0 0.0
2017-Jun-19 19:00N 39°13' E 009°04'0 0.0
2017-Jun-19 18:30N 39°13' E 009°04'0 0.0
2017-Jun-19 18:00N 39°13' E 009°04'0 0.0
2017-Jun-19 17:30N 39°13' E 009°04'0 0.0
2017-Jun-19 17:00N 39°13' E 009°04'0 0.0
2017-Jun-19 16:30N 39°13' E 009°04'0 0.0
2017-Jun-19 16:00N 39°13' E 009°04'0 0.0
2017-Jun-19 15:30N 39°13' E 009°04'0 0.0
2017-Jun-19 15:00N 39°13' E 009°04'0 0.3
2017-Jun-19 14:00N 39°13' E 009°04'3 5.8
2017-Jun-19 13:30N 39°11' E 009°06'3 6.6
2017-Jun-19 13:00N 39°08' E 009°06'611.0
2017-Jun-19 12:30N 39°04' E 009°11'611.9
2017-Jun-19 11:59N 39°00' E 009°17'612.0
2017-Jun-19 11:30N 38°57' E 009°23'712.3
2017-Jun-19 10:55N 38°53' E 009°31'21211.6
2017-Jun-18 16:39N 37°03' E 013°21'311.2
2017-Jun-18 16:26N 37°02' E 013°24'511.1
2017-Jun-18 16:00N 37°01' E 013°29'611.1
2017-Jun-18 15:30N 36°58' E 013°36'611.2
2017-Jun-18 15:00N 36°56' E 013°42'1111.4
2017-Jun-18 14:00N 36°52' E 013°55'611.4
2017-Jun-18 13:30N 36°49' E 014°02'611.4
2017-Jun-18 13:00N 36°47' E 014°08'611.4
2017-Jun-18 12:30N 36°44' E 014°15'611.4
2017-Jun-18 12:00N 36°42' E 014°21'611.5
2017-Jun-18 11:30N 36°40' E 014°28'611.4
2017-Jun-18 11:00N 36°39' E 014°35'611.2
2017-Jun-18 10:30N 36°37' E 014°42'611.6
2017-Jun-18 10:00N 36°36' E 014°49'712.0
2017-Jun-18 09:25N 36°35' E 014°57'512.2
2017-Jun-18 08:58N 36°35' E 015°04'  

Dump ship's entire track history